createdAt,value
2018-12-25T00:04:40.488Z,15.43
2018-12-25T00:09:41.621Z,14.30
2018-12-25T00:14:43.057Z,14.83
2018-12-25T00:19:45.444Z,17.33
2018-12-25T00:24:46.512Z,10.93
2018-12-25T00:29:47.606Z,11.33
2018-12-25T00:34:48.727Z,16.97
2018-12-25T00:39:49.826Z,13.63
2018-12-25T00:44:50.957Z,13.37
2018-12-25T00:49:52.074Z,12.50
2018-12-25T00:54:53.179Z,16.23
2018-12-25T00:59:54.272Z,11.97
2018-12-25T01:04:55.381Z,13.73
2018-12-25T01:09:56.503Z,12.80
2018-12-25T01:14:57.598Z,14.67
2018-12-25T01:19:58.718Z,13.93
2018-12-25T01:24:59.828Z,22.93
2018-12-25T01:30:01.030Z,19.80
2018-12-25T01:35:02.157Z,13.47
2018-12-25T01:40:04.361Z,12.77
2018-12-25T01:45:05.451Z,15.10
2018-12-25T01:50:06.583Z,11.73
2018-12-25T01:55:07.671Z,14.33
2018-12-25T02:00:09.085Z,13.60
2018-12-25T02:05:10.174Z,14.47
2018-12-25T02:10:11.310Z,16.13
2018-12-25T02:15:12.399Z,16.70
2018-12-25T02:20:13.514Z,18.90
2018-12-25T02:25:14.626Z,18.43
2018-12-25T02:30:15.751Z,16.27
2018-12-25T02:35:16.856Z,17.27
2018-12-25T02:40:17.964Z,15.73
2018-12-25T02:45:19.055Z,20.83
2018-12-25T02:50:20.187Z,19.70
2018-12-25T02:55:21.265Z,18.37
2018-12-25T03:00:22.362Z,18.90
2018-12-25T03:05:23.567Z,15.33
2018-12-25T03:10:24.663Z,15.67
2018-12-25T03:15:25.757Z,17.87
2018-12-25T03:20:26.859Z,21.63
2018-12-25T03:25:28.059Z,29.67
2018-12-25T03:30:29.154Z,31.10
2018-12-25T03:35:30.251Z,21.97
2018-12-25T03:40:31.760Z,20.70
2018-12-25T03:45:32.855Z,21.17
2018-12-25T03:50:34.011Z,22.23
2018-12-25T03:55:35.104Z,20.47
2018-12-25T04:00:36.212Z,21.13
2018-12-25T04:05:37.303Z,28.23
2018-12-25T04:10:38.427Z,28.97
2018-12-25T04:15:39.540Z,32.50
2018-12-25T04:20:40.641Z,41.03
2018-12-25T04:25:41.815Z,40.93
2018-12-25T04:30:42.941Z,30.00
2018-12-25T04:35:44.020Z,35.27
2018-12-25T04:40:45.116Z,37.20
2018-12-25T04:45:46.224Z,38.97
2018-12-25T04:50:47.325Z,36.80
2018-12-25T04:55:48.427Z,37.40
2018-12-25T05:00:49.529Z,39.80
2018-12-25T05:05:50.631Z,36.67
2018-12-25T05:10:51.715Z,39.23
2018-12-25T05:15:53.307Z,36.10
2018-12-25T05:20:54.406Z,32.20
2018-12-25T05:25:55.512Z,33.13
2018-12-25T05:30:56.604Z,34.30
2018-12-25T05:35:57.701Z,33.40
2018-12-25T05:40:58.805Z,32.40
2018-12-25T05:46:01.800Z,34.13
2018-12-25T05:51:03.022Z,35.63
2018-12-25T05:56:04.112Z,36.13
2018-12-25T06:01:05.203Z,41.37
2018-12-25T06:06:06.315Z,32.40
2018-12-25T06:11:07.432Z,34.90
2018-12-25T06:16:08.645Z,35.97
2018-12-25T06:21:09.743Z,39.40
2018-12-25T06:26:10.843Z,31.57
2018-12-25T06:31:11.926Z,35.63
2018-12-25T06:36:13.020Z,41.70
2018-12-25T06:41:14.116Z,39.40
2018-12-25T06:46:15.309Z,34.00
2018-12-25T06:51:16.436Z,37.00
2018-12-25T06:56:17.520Z,35.33
2018-12-25T07:01:18.612Z,35.23
2018-12-25T07:06:19.707Z,31.63
2018-12-25T07:11:20.824Z,35.03
2018-12-25T07:16:21.913Z,38.60
2018-12-25T07:21:23.015Z,43.30
2018-12-25T07:26:24.119Z,38.87
2018-12-25T07:31:25.211Z,38.63
2018-12-25T07:36:26.319Z,34.37
2018-12-25T07:41:27.418Z,35.23
2018-12-25T07:46:28.512Z,35.00
2018-12-25T07:51:29.727Z,33.67
2018-12-25T07:56:30.819Z,36.30
2018-12-25T08:01:31.915Z,45.27
2018-12-25T08:06:33.022Z,38.53
2018-12-25T08:11:34.148Z,29.27
2018-12-25T08:16:35.254Z,32.57
2018-12-25T08:21:36.340Z,34.50
2018-12-25T08:26:37.427Z,34.10
2018-12-25T08:31:38.535Z,37.27
2018-12-25T08:36:39.627Z,35.77
2018-12-25T08:41:40.723Z,36.43
2018-12-25T08:46:41.832Z,33.87
2018-12-25T08:51:42.947Z,35.57
2018-12-25T08:56:44.048Z,35.20
2018-12-25T09:01:45.118Z,34.00
2018-12-25T09:06:46.226Z,25.00
2018-12-25T09:11:47.476Z,33.03
2018-12-25T09:16:48.582Z,24.83
2018-12-25T09:21:49.679Z,26.57
2018-12-25T09:26:50.885Z,26.40
2018-12-25T09:31:51.980Z,22.37
2018-12-25T09:36:53.199Z,23.63
2018-12-25T09:41:54.295Z,23.23
2018-12-25T09:46:55.390Z,20.17
2018-12-25T09:51:56.536Z,23.73
2018-12-25T09:56:57.632Z,23.97
2018-12-25T10:01:58.733Z,25.73
2018-12-25T10:06:59.837Z,28.50
2018-12-25T10:12:00.940Z,29.00
2018-12-25T10:17:02.072Z,21.67
2018-12-25T10:22:05.202Z,20.13
2018-12-25T10:27:06.255Z,18.20
2018-12-25T10:32:07.462Z,18.43
2018-12-25T10:37:08.576Z,21.97
2018-12-25T10:42:09.680Z,18.47
2018-12-25T10:47:10.780Z,22.03
2018-12-25T10:52:12.080Z,22.93
2018-12-25T10:57:13.200Z,19.00
2018-12-25T11:02:14.295Z,19.50
2018-12-25T11:07:16.250Z,21.63
2018-12-25T11:12:17.363Z,19.43
2018-12-25T11:17:18.475Z,21.07
2018-12-25T11:22:19.982Z,20.87
2018-12-25T11:27:21.386Z,18.97
2018-12-25T11:32:22.489Z,20.00
2018-12-25T11:37:23.580Z,18.87
2018-12-25T11:42:24.671Z,19.07
2018-12-25T11:47:25.777Z,23.93
2018-12-25T11:52:28.559Z,17.33
2018-12-25T11:57:29.894Z,15.57
2018-12-25T12:02:31.008Z,19.03
2018-12-25T12:07:32.108Z,16.40
2018-12-25T12:12:33.243Z,17.67
2018-12-25T12:17:34.355Z,16.17
2018-12-25T12:22:37.167Z,14.93
2018-12-25T12:27:38.447Z,11.57
2018-12-25T12:32:39.549Z,13.77
2018-12-25T12:37:40.671Z,16.07
2018-12-25T12:42:41.772Z,13.57
2018-12-25T12:47:42.888Z,19.50
2018-12-25T12:52:45.713Z,13.97
2018-12-25T12:57:47.019Z,15.53
2018-12-25T13:02:48.130Z,15.77
2018-12-25T13:07:49.245Z,15.33
2018-12-25T13:12:50.385Z,17.67
2018-12-25T13:17:51.515Z,15.07
2018-12-25T13:22:54.149Z,15.00
2018-12-25T13:27:55.612Z,13.13
2018-12-25T13:32:56.717Z,10.93
2018-12-25T13:37:57.822Z,11.60
2018-12-25T13:42:58.924Z,11.17
2018-12-25T13:48:00.024Z,11.90
2018-12-25T13:53:02.936Z,12.73
2018-12-25T13:58:04.504Z,14.20
2018-12-25T14:03:05.676Z,15.60
2018-12-25T14:08:06.792Z,21.07
2018-12-25T14:13:07.904Z,22.30
2018-12-25T14:18:09.008Z,16.07
2018-12-25T14:23:11.280Z,18.57
2018-12-25T14:28:12.732Z,18.23
2018-12-25T14:33:13.827Z,19.73
2018-12-25T14:38:14.953Z,16.57
2018-12-25T14:43:16.071Z,16.73
2018-12-25T14:48:17.187Z,17.13
2018-12-25T14:53:19.868Z,15.70
2018-12-25T14:58:21.349Z,18.63
2018-12-25T15:03:22.684Z,25.57
2018-12-25T15:08:23.779Z,33.90
2018-12-25T15:13:24.895Z,24.63
2018-12-25T15:18:25.992Z,22.80
2018-12-25T15:23:28.290Z,23.57
2018-12-25T15:28:29.811Z,23.97
2018-12-25T15:33:30.952Z,25.53
2018-12-25T15:38:32.052Z,27.80
2018-12-25T15:43:33.160Z,28.27
2018-12-25T15:48:34.506Z,32.33
2018-12-25T15:53:37.065Z,29.53
2018-12-25T15:58:38.631Z,25.97
2018-12-25T16:03:39.753Z,25.13
2018-12-25T16:08:40.851Z,42.00
2018-12-25T16:13:41.958Z,30.03
2018-12-25T16:18:43.062Z,26.97
2018-12-25T16:23:45.563Z,26.67
2018-12-25T16:28:47.067Z,30.40
2018-12-25T16:33:48.205Z,23.40
2018-12-25T16:38:49.308Z,28.10
2018-12-25T16:43:50.415Z,24.67
2018-12-25T16:48:51.514Z,25.87
2018-12-25T16:53:53.735Z,27.50
2018-12-25T16:58:55.147Z,27.93
2018-12-25T17:03:56.250Z,32.87
2018-12-25T17:08:57.348Z,29.20
2018-12-25T17:13:58.454Z,30.20
2018-12-25T17:18:59.552Z,26.23
2018-12-25T17:24:02.291Z,30.87
2018-12-25T17:29:03.682Z,40.03
2018-12-25T17:34:04.804Z,34.83
2018-12-25T17:39:06.009Z,39.10
2018-12-25T17:44:07.110Z,36.30
2018-12-25T17:49:08.211Z,36.00
2018-12-25T17:54:10.832Z,36.60
2018-12-25T17:59:12.343Z,38.77
2018-12-25T18:04:13.463Z,36.43
2018-12-25T18:09:14.566Z,37.60
2018-12-25T18:14:15.681Z,34.40
2018-12-25T18:19:16.907Z,39.77
2018-12-25T18:24:19.407Z,39.77
2018-12-25T18:29:20.921Z,33.67
2018-12-25T18:34:22.132Z,35.30
2018-12-25T18:39:23.334Z,35.27
2018-12-25T18:44:24.435Z,37.77
2018-12-25T18:49:25.531Z,37.60
2018-12-25T18:54:27.946Z,52.90
2018-12-25T18:59:29.431Z,48.20
2018-12-25T19:04:30.544Z,39.20
2018-12-25T19:09:31.744Z,44.67
2018-12-25T19:14:33.060Z,43.57
2018-12-25T19:19:34.230Z,47.27
2018-12-25T19:24:36.416Z,40.33
2018-12-25T19:29:37.795Z,47.47
2018-12-25T19:34:38.897Z,51.63
2018-12-25T19:39:40.111Z,50.13
2018-12-25T19:44:41.228Z,72.83
2018-12-25T19:49:42.331Z,94.57
2018-12-25T19:54:44.705Z,78.70
2018-12-25T19:59:45.988Z,62.90
2018-12-25T20:04:53.984Z,59.73
2018-12-25T20:10:08.138Z,66.07
2018-12-25T20:15:29.847Z,46.23
2018-12-25T20:20:50.171Z,49.80
2018-12-25T20:26:09.611Z,68.20
2018-12-25T20:31:29.676Z,83.20
2018-12-25T20:36:43.593Z,67.60
2018-12-25T20:42:05.095Z,156.30
2018-12-25T20:47:28.290Z,71.57
2018-12-25T20:52:57.835Z,104.43
2018-12-25T20:58:32.105Z,110.93
2018-12-25T21:03:52.283Z,89.00
2018-12-25T21:09:17.050Z,193.47
2018-12-25T21:14:45.156Z,70.10
2018-12-25T21:20:40.200Z,170.37
2018-12-25T21:26:16.467Z,146.07
2018-12-25T21:31:17.878Z,75.53
2018-12-25T21:36:19.208Z,62.27
2018-12-25T21:41:20.913Z,109.70
2018-12-25T21:46:23.108Z,68.20
2018-12-25T21:51:24.539Z,50.80
2018-12-25T21:56:25.848Z,74.20
2018-12-25T22:01:26.940Z,69.40
2018-12-25T22:06:28.039Z,62.10
2018-12-25T22:11:29.129Z,49.77
2018-12-25T22:16:30.244Z,57.93
2018-12-25T22:21:31.350Z,62.63
2018-12-25T22:26:32.455Z,74.07
2018-12-25T22:31:33.560Z,50.53
2018-12-25T22:36:34.697Z,96.20
2018-12-25T22:41:35.802Z,76.17
2018-12-25T22:46:36.899Z,46.47
2018-12-25T22:51:39.443Z,53.60
2018-12-25T22:56:40.933Z,69.00
2018-12-25T23:01:42.038Z,57.07
2018-12-25T23:06:43.164Z,63.10
2018-12-25T23:11:44.372Z,57.53
2018-12-25T23:16:45.487Z,59.43
2018-12-25T23:21:46.595Z,90.53
2018-12-25T23:26:47.704Z,51.33
2018-12-25T23:31:48.801Z,55.73
2018-12-25T23:36:49.922Z,45.83
2018-12-25T23:41:51.028Z,39.73
2018-12-25T23:46:52.130Z,64.67
2018-12-25T23:51:53.244Z,44.33
2018-12-25T23:56:54.366Z,34.67
